Terminal Aerodrome Forecast
Issued by NWS Greer, SC

Home | Current Version | Previous Version | Text Only | Print | Product List | Glossary On
Versions: 1 2 3 4 5 6 7 8 9 10 11 12 13 14 15 16 17 18 19 20 21
000
FTUS42 KGSP 252322
TAFGSP
TAF
KGSP 252322Z 2600/2624 16004KT P6SM SCT050
     FM260600 00000KT 4SM BR FEW010
     FM261300 22005KT P6SM FEW050
     FM261800 21006KT P6SM SCT060=

USA.gov is the U.S. government's official web portal to all federal, state and local government web resources and services.